EZY14JQ GMAD-EGGD
Flight info
| Callsign | EZY14JQ |
|---|---|
| Flight time | N/A |
| Altitude | 34000 |
| Route | MOGBA UH300 ESS UR724 OSLAD DCT OBOLO DCT VFA DCT MARIM DCT ALAGU DCT ELVAR DCT BARDI DCT ZMR DCT NUBLO DCT RONSI DCT DELOG DCT NOVAN DCT NOZHU DCT SHIRI DCT TOJAQ |
| Aircraft | A320/M-SDE2E3FGHIJ1RWXYZ/LB1 |
Departure
| Time | 2026-05-07 17:49 |
|---|---|
| Airport | Al Massira Airport (GMAD) |
Arrival
| Time | N/A |
|---|---|
| Airport | Bristol Airport (EGGD) |
| Time | Latitude | Longitude | Altitude | Speed | Heading |
|---|---|---|---|---|---|
| 2026-05-07 17:12 | 30.32855 | -9.41299 | 222 ft | 0 kts | 4° |
| 2026-05-07 17:38 | 30.32841 | -9.41302 | 222 ft | 2 kts | 25° |
| 2026-05-07 17:39 | 30.32828 | -9.41311 | 222 ft | 2 kts | 43° |
| 2026-05-07 17:39 | 30.32819 | -9.41325 | 222 ft | 2 kts | 63° |
| 2026-05-07 17:39 | 30.32814 | -9.41342 | 222 ft | 2 kts | 83° |
| 2026-05-07 17:39 | 30.32813 | -9.41355 | 221 ft | 0 kts | 96° |
| 2026-05-07 17:41 | 30.32813 | -9.41345 | 221 ft | 5 kts | 94° |
| 2026-05-07 17:42 | 30.32810 | -9.41296 | 222 ft | 5 kts | 94° |
| 2026-05-07 17:42 | 30.32808 | -9.41251 | 223 ft | 5 kts | 92° |
| 2026-05-07 17:42 | 30.32807 | -9.41187 | 225 ft | 11 kts | 92° |
| 2026-05-07 17:42 | 30.32806 | -9.41096 | 225 ft | 11 kts | 90° |
| 2026-05-07 17:43 | 30.32806 | -9.41000 | 225 ft | 12 kts | 90° |
| 2026-05-07 17:43 | 30.32805 | -9.40906 | 227 ft | 11 kts | 93° |
| 2026-05-07 17:43 | 30.32801 | -9.40817 | 229 ft | 10 kts | 93° |
| 2026-05-07 17:43 | 30.32793 | -9.40736 | 230 ft | 10 kts | 104° |
| 2026-05-07 17:44 | 30.32745 | -9.40682 | 231 ft | 12 kts | 163° |
| 2026-05-07 17:44 | 30.32653 | -9.40673 | 232 ft | 13 kts | 180° |
| 2026-05-07 17:44 | 30.32587 | -9.40675 | 233 ft | 13 kts | 181° |
| 2026-05-07 17:45 | 30.32525 | -9.40681 | 234 ft | 12 kts | 185° |
| 2026-05-07 17:45 | 30.32450 | -9.40649 | 235 ft | 11 kts | 127° |
| 2026-05-07 17:45 | 30.32438 | -9.40538 | 237 ft | 16 kts | 92° |
| 2026-05-07 17:45 | 30.32433 | -9.40377 | 241 ft | 19 kts | 92° |
| 2026-05-07 17:46 | 30.32427 | -9.40216 | 244 ft | 19 kts | 92° |
| 2026-05-07 17:46 | 30.32424 | -9.40063 | 246 ft | 18 kts | 91° |
| 2026-05-07 17:46 | 30.32422 | -9.39917 | 248 ft | 17 kts | 91° |
| 2026-05-07 17:46 | 30.32419 | -9.39785 | 251 ft | 15 kts | 93° |
| 2026-05-07 17:47 | 30.32413 | -9.39663 | 253 ft | 15 kts | 91° |
| 2026-05-07 17:47 | 30.32407 | -9.39544 | 256 ft | 14 kts | 102° |
| 2026-05-07 17:47 | 30.32340 | -9.39495 | 258 ft | 12 kts | 180° |
| 2026-05-07 17:47 | 30.32255 | -9.39507 | 258 ft | 12 kts | 205° |
| 2026-05-07 17:48 | 30.32226 | -9.39614 | 256 ft | 26 kts | 271° |
| 2026-05-07 17:48 | 30.32236 | -9.40132 | 248 ft | 97 kts | 273° |
| 2026-05-07 17:48 | 30.32261 | -9.41175 | 230 ft | 154 kts | 270° |
| 2026-05-07 17:48 | 30.32304 | -9.42474 | 652 ft | 164 kts | 271° |
| 2026-05-07 17:49 | 30.32379 | -9.43816 | 1305 ft | 167 kts | 272° |
| 2026-05-07 17:49 | 30.32474 | -9.45154 | 2011 ft | 167 kts | 272° |
| 2026-05-07 17:49 | 30.32583 | -9.46548 | 2447 ft | 179 kts | 272° |
| 2026-05-07 17:49 | 30.32704 | -9.48086 | 2823 ft | 197 kts | 271° |
| 2026-05-07 17:50 | 30.32569 | -9.49722 | 3160 ft | 212 kts | 246° |
| 2026-05-07 17:50 | 30.31642 | -9.51183 | 3536 ft | 232 kts | 225° |
| 2026-05-07 17:50 | 30.30432 | -9.52539 | 4090 ft | 246 kts | 225° |
| 2026-05-07 17:50 | 30.29181 | -9.53946 | 4915 ft | 249 kts | 225° |
| 2026-05-07 17:51 | 30.27946 | -9.55377 | 5790 ft | 251 kts | 229° |
| 2026-05-07 17:51 | 30.27097 | -9.57191 | 6626 ft | 257 kts | 249° |
| 2026-05-07 17:51 | 30.26634 | -9.59206 | 7468 ft | 260 kts | 253° |
| 2026-05-07 17:51 | 30.26207 | -9.61295 | 8266 ft | 264 kts | 252° |
| 2026-05-07 17:52 | 30.25760 | -9.63384 | 9051 ft | 268 kts | 251° |
| 2026-05-07 17:52 | 30.25286 | -9.65500 | 9825 ft | 271 kts | 250° |
| 2026-05-07 17:52 | 30.24789 | -9.67675 | 10496 ft | 279 kts | 249° |
| 2026-05-07 17:52 | 30.24454 | -9.70042 | 10853 ft | 305 kts | 262° |
| 2026-05-07 17:53 | 30.24753 | -9.72602 | 11154 ft | 335 kts | 283° |
| 2026-05-07 17:53 | 30.25872 | -9.74932 | 11444 ft | 364 kts | 304° |
| 2026-05-07 17:53 | 30.27874 | -9.76917 | 11849 ft | 387 kts | 327° |
| 2026-05-07 17:53 | 30.30460 | -9.78026 | 12509 ft | 398 kts | 348° |
| 2026-05-07 17:54 | 30.33271 | -9.78209 | 13265 ft | 402 kts | 359° |
| 2026-05-07 17:54 | 30.36112 | -9.78174 | 13944 ft | 406 kts | 2° |
| 2026-05-07 17:54 | 30.39012 | -9.77834 | 14599 ft | 410 kts | 7° |
| 2026-05-07 17:54 | 30.41878 | -9.77375 | 15255 ft | 414 kts | 7° |
| 2026-05-07 17:55 | 30.44253 | -9.77039 | 15779 ft | 417 kts | 6° |
| 2026-05-07 17:55 | 30.47168 | -9.76704 | 16404 ft | 420 kts | 4° |
| 2026-05-07 17:55 | 30.50145 | -9.76422 | 17025 ft | 423 kts | 4° |
| 2026-05-07 17:55 | 30.53090 | -9.76170 | 17620 ft | 426 kts | 3° |
| 2026-05-07 17:56 | 30.55966 | -9.75930 | 18181 ft | 430 kts | 3° |
| 2026-05-07 17:56 | 30.58969 | -9.75678 | 18752 ft | 433 kts | 3° |
| 2026-05-07 17:56 | 30.62011 | -9.75417 | 19312 ft | 436 kts | 3° |
| 2026-05-07 17:56 | 30.65079 | -9.75153 | 19858 ft | 439 kts | 3° |
| 2026-05-07 17:57 | 30.67873 | -9.74911 | 20345 ft | 442 kts | 3° |
| 2026-05-07 17:57 | 30.69928 | -9.74733 | 20693 ft | 444 kts | 3° |
| 2026-05-07 17:57 | 30.74079 | -9.74374 | 21381 ft | 448 kts | 3° |
| 2026-05-07 17:57 | 30.77212 | -9.74103 | 21885 ft | 451 kts | 3° |
| 2026-05-07 17:58 | 30.80377 | -9.73827 | 22374 ft | 454 kts | 3° |
| 2026-05-07 17:58 | 30.83572 | -9.73550 | 22856 ft | 457 kts | 3° |
| 2026-05-07 17:58 | 30.86760 | -9.73273 | 23316 ft | 460 kts | 3° |
| 2026-05-07 17:58 | 30.89979 | -9.72994 | 23769 ft | 462 kts | 3° |
| 2026-05-07 17:59 | 30.93216 | -9.72712 | 24226 ft | 464 kts | 3° |
| 2026-05-07 17:59 | 30.96432 | -9.72433 | 24720 ft | 465 kts | 3° |
| 2026-05-07 17:59 | 30.99649 | -9.72152 | 25180 ft | 466 kts | 4° |
| 2026-05-07 17:59 | 31.02880 | -9.71871 | 25616 ft | 467 kts | 3° |
| 2026-05-07 18:00 | 31.05883 | -9.71614 | 26009 ft | 469 kts | 3° |
| 2026-05-07 18:00 | 31.09195 | -9.71332 | 26403 ft | 470 kts | 3° |
| 2026-05-07 18:00 | 31.12457 | -9.71055 | 26828 ft | 471 kts | 3° |
| 2026-05-07 18:00 | 31.15722 | -9.70777 | 27332 ft | 469 kts | 3° |
| 2026-05-07 18:01 | 31.18854 | -9.70509 | 27815 ft | 467 kts | 3° |
| 2026-05-07 18:01 | 31.22095 | -9.70233 | 28286 ft | 465 kts | 3° |
| 2026-05-07 18:01 | 31.25329 | -9.69956 | 28732 ft | 464 kts | 3° |
| 2026-05-07 18:01 | 31.28566 | -9.69679 | 29180 ft | 463 kts | 3° |
| 2026-05-07 18:02 | 31.34966 | -9.69128 | 30052 ft | 461 kts | 3° |
| 2026-05-07 18:02 | 31.38185 | -9.68790 | 30469 ft | 460 kts | 6° |
| 2026-05-07 18:02 | 31.41360 | -9.68247 | 30879 ft | 459 kts | 9° |
| 2026-05-07 18:03 | 31.44475 | -9.67489 | 31282 ft | 458 kts | 12° |
| 2026-05-07 18:03 | 31.47577 | -9.66616 | 31671 ft | 457 kts | 13° |
| 2026-05-07 18:03 | 31.50658 | -9.65722 | 32031 ft | 457 kts | 13° |
| 2026-05-07 18:03 | 31.53739 | -9.64825 | 32374 ft | 456 kts | 13° |
| 2026-05-07 18:04 | 31.56827 | -9.63929 | 32663 ft | 457 kts | 13° |
| 2026-05-07 18:04 | 31.59924 | -9.63034 | 32930 ft | 458 kts | 13° |
| 2026-05-07 18:04 | 31.63026 | -9.62140 | 33184 ft | 459 kts | 13° |
| 2026-05-07 18:04 | 31.66146 | -9.61241 | 33424 ft | 460 kts | 13° |
| 2026-05-07 18:05 | 31.69043 | -9.60408 | 33647 ft | 461 kts | 13° |
| 2026-05-07 18:05 | 31.72199 | -9.59501 | 33879 ft | 462 kts | 13° |
| 2026-05-07 18:05 | 31.75334 | -9.58600 | 33934 ft | 463 kts | 13° |
| 2026-05-07 18:06 | 31.81519 | -9.56819 | 33946 ft | 464 kts | 13° |
| 2026-05-07 18:06 | 31.87899 | -9.54977 | 33951 ft | 474 kts | 13° |
| 2026-05-07 18:07 | 31.94325 | -9.53121 | 33951 ft | 484 kts | 13° |
| 2026-05-07 18:07 | 32.00951 | -9.51206 | 33951 ft | 493 kts | 13° |
| 2026-05-07 18:08 | 32.06283 | -9.49660 | 33949 ft | 493 kts | 13° |
| 2026-05-07 18:08 | 32.14348 | -9.47321 | 33949 ft | 492 kts | 13° |
| 2026-05-07 18:09 | 32.20614 | -9.45507 | 33950 ft | 492 kts | 13° |